Time;durP1;ratioP1;P1;durP2;ratioP2;P2;SDS_P1;SDS_P2;PMS_P1;PMS_P2;Temp;Humidity;BMP_temperature;BMP_pressure;BME280_temperature;BME280_humidity;BME280_pressure;Samples;Min_cycle;Max_cycle;Signal;HPM_P1;HPM_P2
2022/03/22 00:01:58;;;;;;;28.33;20.88;;;9.10;94.70;;;;;;5032116;28;20037;-87
2022/03/22 00:04:24;;;;;;;29.40;23.50;;;9.10;95.00;;;;;;5032406;28;20059;-88
2022/03/22 00:06:50;;;;;;;30.50;22.17;;;9.00;95.40;;;;;;5032372;28;20399;-87
2022/03/22 00:09:15;;;;;;;30.20;22.10;;;9.00;95.20;;;;;;5032094;28;20501;-88
2022/03/22 00:11:41;;;;;;;31.30;23.25;;;8.90;95.20;;;;;;5031596;28;20044;-87
2022/03/22 00:14:08;;;;;;;31.98;21.92;;;8.80;95.50;;;;;;5032264;28;20049;-88
2022/03/22 00:16:35;;;;;;;30.80;22.75;;;8.70;95.90;;;;;;5031880;28;20124;-88
2022/03/22 00:19:01;;;;;;;36.47;25.60;;;8.70;96.10;;;;;;5031672;28;20041;-88
2022/03/22 00:21:26;;;;;;;30.88;22.45;;;8.70;96.40;;;;;;5031447;28;20033;-87
2022/03/22 00:23:52;;;;;;;33.75;24.88;;;8.70;96.40;;;;;;5031745;28;20044;-88
2022/03/22 00:26:18;;;;;;;28.88;22.65;;;8.70;96.50;;;;;;5031870;28;20408;-88
2022/03/22 00:28:45;;;;;;;32.70;22.65;;;8.70;96.60;;;;;;5031700;28;20030;-87
2022/03/22 00:31:11;;;;;;;32.13;23.80;;;8.60;96.60;;;;;;5031341;28;20042;-87
2022/03/22 00:33:37;;;;;;;30.33;21.63;;;8.60;96.70;;;;;;5031308;28;20168;-87
2022/03/22 00:36:04;;;;;;;27.63;19.75;;;8.60;96.60;;;;;;5031862;28;20136;-88
2022/03/22 00:38:29;;;;;;;28.98;21.73;;;8.50;96.70;;;;;;5015022;28;20052;-88
2022/03/22 00:40:55;;;;;;;27.92;20.23;;;8.40;97.00;;;;;;5031068;28;20037;-88
2022/03/22 00:43:21;;;;;;;31.45;22.05;;;8.30;97.20;;;;;;5031494;28;20438;-88
2022/03/22 00:45:48;;;;;;;28.10;20.88;;;8.30;97.50;;;;;;5031253;28;20087;-87
2022/03/22 00:48:14;;;;;;;29.50;19.27;;;8.20;97.50;;;;;;5031186;28;20137;-88
2022/03/22 00:50:46;;;;;;;28.98;18.55;;;8.10;97.60;;;;;;5031073;28;20518;-87
2022/03/22 00:53:13;;;;;;;27.90;18.77;;;8.10;97.80;;;;;;5031463;28;20124;-87
2022/03/22 00:55:43;;;;;;;26.70;18.88;;;8.00;97.80;;;;;;5031168;28;20056;-87
2022/03/22 00:58:09;;;;;;;26.63;19.77;;;8.00;97.90;;;;;;5031114;28;20503;-88
2022/03/22 01:00:36;;;;;;;28.83;20.27;;;7.90;98.00;;;;;;5030742;28;20601;-88
2022/03/22 01:03:03;;;;;;;36.55;25.02;;;7.90;98.40;;;;;;5031108;28;20048;-88
2022/03/22 01:05:30;;;;;;;38.30;28.23;;;8.00;98.30;;;;;;5030967;28;20495;-88
2022/03/22 01:08:08;;;;;;;34.92;26.55;;;8.00;98.40;;;;;;5030898;28;20042;-87
2022/03/22 01:10:38;;;;;;;40.53;27.70;;;8.10;98.40;;;;;;5031855;28;20400;-87
2022/03/22 01:13:06;;;;;;;34.83;25.77;;;8.10;98.50;;;;;;5030846;28;20785;-88
2022/03/22 01:15:33;;;;;;;35.08;27.27;;;8.20;98.20;;;;;;5031042;28;20059;-88
2022/03/22 01:18:03;;;;;;;31.92;23.67;;;8.20;98.30;;;;;;5030883;28;20041;-87
2022/03/22 01:20:31;;;;;;;32.58;23.77;;;8.20;98.30;;;;;;5014036;28;20041;-88
2022/03/22 01:22:57;;;;;;;34.47;24.58;;;8.20;98.30;;;;;;5031025;28;20045;-88
2022/03/22 01:25:25;;;;;;;35.70;27.75;;;8.20;98.50;;;;;;5014042;28;20504;-88
2022/03/22 01:27:51;;;;;;;36.47;25.52;;;8.20;98.20;;;;;;5029988;28;20116;-89
2022/03/22 01:30:22;;;;;;;32.75;24.92;;;8.20;98.30;;;;;;5014062;28;20083;-88
2022/03/22 01:32:52;;;;;;;32.97;24.67;;;8.10;98.30;;;;;;5030700;28;20037;-88
2022/03/22 01:35:19;;;;;;;29.63;22.38;;;8.20;98.20;;;;;;5014387;28;20479;-88
2022/03/22 01:37:47;;;;;;;34.88;25.77;;;8.10;98.20;;;;;;5013851;28;20041;-88
2022/03/22 01:40:14;;;;;;;31.95;21.25;;;8.10;98.30;;;;;;5030102;28;20056;-88
2022/03/22 01:42:40;;;;;;;26.75;19.70;;;8.10;98.10;;;;;;5030394;28;20503;-88
2022/03/22 01:45:10;;;;;;;25.15;17.08;;;8.00;98.20;;;;;;5030524;28;20037;-88
2022/03/22 01:47:37;;;;;;;33.25;23.05;;;7.80;98.50;;;;;;5030751;28;20148;-88
2022/03/22 01:50:05;;;;;;;32.60;23.17;;;7.70;98.70;;;;;;5013567;28;20049;-88
2022/03/22 01:52:34;;;;;;;29.35;23.17;;;7.70;98.90;;;;;;5030400;28;20442;-88
2022/03/22 01:54:59;;;;;;;30.73;21.98;;;7.70;99.00;;;;;;5030409;28;20045;-88
2022/03/22 01:57:25;;;;;;;33.83;23.95;;;7.60;99.00;;;;;;5030401;28;20043;-87
2022/03/22 01:59:51;;;;;;;28.70;21.67;;;7.60;99.00;;;;;;5029825;28;20091;-88
2022/03/22 02:07:48;;;;;;;34.60;23.52;;;7.50;99.20;;;;;;5030322;28;20473;-88
2022/03/22 02:10:14;;;;;;;32.40;21.15;;;7.40;99.30;;;;;;5013487;28;20041;-88
2022/03/22 02:12:44;;;;;;;33.42;23.30;;;7.40;99.40;;;;;;5030163;28;20124;-88
2022/03/22 02:15:12;;;;;;;30.30;22.58;;;7.30;99.60;;;;;;5013593;28;20038;-88
2022/03/22 02:17:45;;;;;;;32.10;21.98;;;7.30;99.60;;;;;;5030087;28;20064;-87
2022/03/22 02:20:12;;;;;;;28.00;19.73;;;7.30;99.70;;;;;;5013388;28;20109;-88
2022/03/22 02:22:47;;;;;;;32.45;22.23;;;7.30;99.60;;;;;;5030287;28;20034;-88
2022/03/22 02:25:15;;;;;;;33.55;25.05;;;7.20;99.70;;;;;;5030227;28;20091;-88
2022/03/22 02:27:46;;;;;;;28.92;20.67;;;7.20;99.80;;;;;;5013344;28;20037;-87
2022/03/22 02:30:13;;;;;;;27.92;21.38;;;7.20;99.80;;;;;;5029825;28;20051;-88
2022/03/22 02:32:40;;;;;;;31.58;22.77;;;7.20;99.70;;;;;;5030279;28;20041;-88
2022/03/22 02:35:06;;;;;;;34.05;24.83;;;7.20;99.80;;;;;;5030323;28;20498;-88
2022/03/22 02:37:32;;;;;;;31.90;24.13;;;7.20;99.90;;;;;;5031300;28;20117;-88
2022/03/22 02:39:58;;;;;;;29.88;21.90;;;7.20;99.90;;;;;;5033539;28;20092;-88
2022/03/22 02:42:24;;;;;;;33.17;23.58;;;7.10;99.80;;;;;;5034383;28;20149;-88
2022/03/22 02:44:49;;;;;;;30.35;23.00;;;7.20;99.80;;;;;;5034084;28;20467;-88
2022/03/22 02:47:15;;;;;;;33.65;24.75;;;7.20;99.90;;;;;;5033668;28;20033;-87
2022/03/22 02:49:40;;;;;;;39.35;27.95;;;7.20;99.90;;;;;;5033077;28;20050;-87
2022/03/22 02:52:06;;;;;;;39.28;28.50;;;7.20;99.90;;;;;;5033449;28;20041;-88
2022/03/22 02:54:32;;;;;;;39.00;28.10;;;7.30;99.90;;;;;;5033406;28;20045;-88
2022/03/22 02:56:57;;;;;;;35.40;26.00;;;7.30;99.90;;;;;;5033092;28;20048;-88
2022/03/22 02:59:23;;;;;;;37.40;28.70;;;7.40;99.90;;;;;;5033358;28;20038;-88
2022/03/22 03:01:49;;;;;;;37.47;27.98;;;7.40;99.90;;;;;;5016506;28;20037;-87
2022/03/22 03:04:14;;;;;;;37.35;28.02;;;7.40;99.90;;;;;;5033596;28;20099;-88
2022/03/22 03:06:40;;;;;;;34.92;27.15;;;7.40;99.90;;;;;;5033265;28;20044;-88
2022/03/22 03:09:06;;;;;;;35.45;27.42;;;7.50;99.90;;;;;;5033276;28;20069;-88
2022/03/22 03:11:31;;;;;;;38.60;28.25;;;7.50;99.90;;;;;;5032652;28;20034;-88
2022/03/22 03:16:41;;;;;;;35.60;28.55;;;7.50;99.90;;;;;;5033051;28;20045;-88
2022/03/22 03:19:07;;;;;;;37.33;27.92;;;7.50;99.90;;;;;;5033023;28;20042;-88
2022/03/22 03:21:33;;;;;;;39.42;28.23;;;7.50;99.90;;;;;;5032496;28;20119;-88
2022/03/22 03:23:59;;;;;;;37.22;28.00;;;7.40;99.90;;;;;;5032848;28;20048;-88
2022/03/22 03:26:25;;;;;;;37.67;29.55;;;7.50;99.90;;;;;;5032817;28;20033;-88
2022/03/22 03:28:50;;;;;;;39.92;27.92;;;7.50;99.90;;;;;;5016270;28;20037;-87
2022/03/22 03:31:17;;;;;;;40.63;29.13;;;7.50;99.90;;;;;;5032407;28;20030;-88
2022/03/22 03:33:42;;;;;;;37.80;27.63;;;7.40;99.90;;;;;;5032637;28;20033;-88
2022/03/22 03:36:08;;;;;;;37.22;27.58;;;7.40;99.90;;;;;;5032691;28;20044;-87
2022/03/22 03:38:41;;;;;;;35.90;26.70;;;7.40;99.90;;;;;;5032672;28;20033;-88
2022/03/22 03:43:54;;;;;;;36.78;28.45;;;7.40;99.90;;;;;;5032518;28;20099;-87
2022/03/22 03:49:06;;;;;;;33.45;26.35;;;7.40;99.90;;;;;;5032619;28;20458;-88
2022/03/22 03:51:35;;;;;;;37.83;27.88;;;7.40;99.90;;;;;;5031111;28;20103;-88
2022/03/22 03:54:04;;;;;;;36.78;26.67;;;7.40;99.90;;;;;;5032465;28;20042;-88
2022/03/22 03:56:30;;;;;;;39.70;29.13;;;7.40;99.90;;;;;;5032358;28;20041;-88
2022/03/22 03:58:57;;;;;;;35.95;28.17;;;7.40;99.90;;;;;;5032423;28;20095;-88
2022/03/22 04:01:25;;;;;;;37.35;27.30;;;7.40;99.90;;;;;;5031765;28;20081;-88
2022/03/22 04:03:50;;;;;;;40.22;29.05;;;7.40;99.90;;;;;;5015566;28;20514;-88
2022/03/22 04:06:16;;;;;;;39.25;26.95;;;7.40;99.90;;;;;;5032234;28;20080;-88
2022/03/22 04:08:42;;;;;;;39.15;28.30;;;7.40;99.90;;;;;;5032309;28;20033;-88
2022/03/22 04:11:07;;;;;;;36.45;26.42;;;7.40;99.90;;;;;;5031626;28;20395;-88
2022/03/22 04:13:35;;;;;;;44.30;29.50;;;7.40;99.90;;;;;;5031776;28;20183;-88
2022/03/22 04:16:01;;;;;;;34.83;25.77;;;7.30;99.90;;;;;;5031947;28;20074;-88
2022/03/22 04:18:26;;;;;;;37.55;27.10;;;7.30;99.90;;;;;;5031840;28;20072;-88
2022/03/22 04:20:52;;;;;;;35.95;26.48;;;7.30;99.90;;;;;;5031460;28;20041;-88
2022/03/22 04:23:18;;;;;;;35.50;27.92;;;7.30;99.90;;;;;;5031779;28;20045;-88
2022/03/22 04:25:43;;;;;;;35.45;27.92;;;7.20;99.90;;;;;;5031560;28;20049;-88
2022/03/22 04:33:37;;;;;;;37.33;27.20;;;7.20;99.90;;;;;;5031623;28;20053;-88
2022/03/22 04:36:03;;;;;;;42.75;28.60;;;7.20;99.90;;;;;;5031531;28;20041;-88
2022/03/22 04:38:29;;;;;;;41.53;28.67;;;7.10;99.90;;;;;;5031571;28;20045;-87
2022/03/22 04:40:54;;;;;;;37.53;27.77;;;7.10;99.90;;;;;;5031016;28;20042;-87
2022/03/22 04:43:20;;;;;;;35.55;27.15;;;7.10;99.90;;;;;;5031437;28;20029;-88
2022/03/22 04:45:45;;;;;;;40.17;26.48;;;7.10;99.90;;;;;;5031358;28;20048;-87
2022/03/22 04:48:11;;;;;;;35.33;27.23;;;7.10;99.90;;;;;;5031386;28;20102;-87
2022/03/22 04:50:37;;;;;;;37.00;29.00;;;7.10;99.90;;;;;;5031058;28;20593;-87
2022/03/22 04:58:31;;;;;;;39.55;27.52;;;7.10;99.90;;;;;;5031021;28;20053;-87
2022/03/22 05:00:57;;;;;;;35.63;28.63;;;7.10;99.90;;;;;;5014311;28;20498;-87
2022/03/22 05:03:22;;;;;;;34.47;26.48;;;7.20;99.90;;;;;;5013622;28;20034;-87
2022/03/22 05:08:32;;;;;;;40.40;27.85;;;7.10;99.90;;;;;;5030978;28;20045;-87
2022/03/22 05:10:59;;;;;;;38.13;27.15;;;7.10;99.90;;;;;;5030632;28;20124;-87
2022/03/22 05:13:24;;;;;;;38.45;27.42;;;7.10;99.90;;;;;;5014488;28;20037;-87
2022/03/22 05:15:51;;;;;;;37.63;27.67;;;7.10;99.90;;;;;;5030734;28;20045;-87
2022/03/22 05:18:17;;;;;;;41.00;28.27;;;7.10;99.90;;;;;;5031054;28;20487;-87
2022/03/22 05:20:43;;;;;;;39.85;29.27;;;7.10;99.90;;;;;;5030083;28;20037;-87
2022/03/22 05:23:08;;;;;;;36.97;26.80;;;7.10;99.90;;;;;;5030454;28;20034;-87
2022/03/22 05:25:34;;;;;;;38.60;27.70;;;7.10;99.90;;;;;;5030635;28;20037;-87
2022/03/22 05:28:02;;;;;;;38.55;27.70;;;7.10;99.90;;;;;;5030950;28;20040;-87
2022/03/22 05:30:28;;;;;;;38.63;26.55;;;7.00;99.90;;;;;;5030524;28;20033;-87
2022/03/22 05:32:54;;;;;;;38.15;26.60;;;7.00;99.90;;;;;;5030828;28;20049;-87
2022/03/22 05:35:19;;;;;;;38.22;28.45;;;7.00;99.90;;;;;;5014301;28;20095;-87
2022/03/22 05:37:45;;;;;;;38.35;27.73;;;7.00;99.90;;;;;;5030293;28;20099;-87
2022/03/22 05:40:11;;;;;;;37.60;26.85;;;7.00;99.90;;;;;;5030095;28;20115;-88
2022/03/22 05:42:42;;;;;;;40.25;27.02;;;7.00;99.90;;;;;;5030601;28;20046;-87
2022/03/22 05:45:09;;;;;;;36.22;26.52;;;7.00;99.90;;;;;;5014403;28;20041;-88
2022/03/22 05:47:35;;;;;;;38.00;27.80;;;7.00;99.90;;;;;;5030614;28;20045;-87
2022/03/22 05:50:00;;;;;;;37.53;27.15;;;7.00;99.90;;;;;;5029787;28;20410;-87
2022/03/22 05:52:26;;;;;;;38.85;27.20;;;7.00;99.90;;;;;;5030397;28;20041;-87
2022/03/22 05:54:51;;;;;;;40.22;28.48;;;7.00;99.90;;;;;;5030291;28;20128;-87
2022/03/22 05:57:17;;;;;;;38.45;27.83;;;7.00;99.90;;;;;;5030448;28;20076;-87
2022/03/22 05:59:42;;;;;;;36.67;27.52;;;6.90;99.90;;;;;;5029048;28;20112;-87
2022/03/22 06:02:09;;;;;;;40.50;27.90;;;6.90;99.90;;;;;;5013034;28;20033;-88
2022/03/22 06:04:34;;;;;;;43.50;28.10;;;6.90;99.90;;;;;;5029910;28;20500;-88
2022/03/22 06:07:00;;;;;;;35.58;26.00;;;6.90;99.90;;;;;;5031646;28;20045;-87
2022/03/22 06:09:26;;;;;;;41.38;28.42;;;7.00;99.90;;;;;;5031546;28;20045;-88
2022/03/22 06:11:52;;;;;;;36.90;26.77;;;7.00;99.90;;;;;;5013437;28;20045;-87
2022/03/22 06:14:18;;;;;;;35.85;26.45;;;7.00;99.90;;;;;;5032124;28;20076;-87
2022/03/22 06:16:43;;;;;;;36.58;26.98;;;7.00;99.90;;;;;;5034141;28;20045;-87
2022/03/22 06:19:09;;;;;;;36.03;26.92;;;7.10;99.90;;;;;;5017768;28;20457;-87
2022/03/22 06:21:34;;;;;;;36.45;26.75;;;7.10;99.90;;;;;;5017233;28;20038;-87
2022/03/22 06:24:00;;;;;;;40.03;28.08;;;7.10;99.90;;;;;;5017796;28;20037;-87
2022/03/22 06:26:26;;;;;;;35.75;26.45;;;7.10;99.90;;;;;;5017649;28;20090;-87
2022/03/22 06:28:51;;;;;;;34.30;26.55;;;7.20;99.90;;;;;;5033942;28;20037;-87
2022/03/22 06:31:17;;;;;;;35.78;26.15;;;7.20;99.90;;;;;;5033944;28;20041;-87
2022/03/22 06:33:42;;;;;;;37.50;26.67;;;7.20;99.90;;;;;;5033738;28;20039;-87
2022/03/22 06:36:08;;;;;;;35.53;26.55;;;7.30;99.90;;;;;;5017394;28;20060;-87
2022/03/22 06:38:35;;;;;;;37.63;25.45;;;7.30;99.90;;;;;;5033748;28;20045;-87
2022/03/22 06:41:01;;;;;;;36.30;25.13;;;7.40;99.90;;;;;;5016877;28;20473;-87
2022/03/22 06:43:27;;;;;;;36.88;24.27;;;7.40;99.90;;;;;;5033719;28;20046;-87
2022/03/22 06:45:52;;;;;;;34.55;25.73;;;7.40;99.90;;;;;;5033718;28;20045;-87
2022/03/22 06:48:18;;;;;;;34.15;24.17;;;7.50;99.90;;;;;;5033532;28;20069;-87
2022/03/22 06:50:47;;;;;;;35.28;25.15;;;7.60;99.90;;;;;;5033373;28;20091;-88
2022/03/22 06:53:13;;;;;;;37.83;26.27;;;7.60;99.90;;;;;;5017049;28;20045;-87
2022/03/22 06:55:39;;;;;;;37.75;25.58;;;7.70;99.90;;;;;;5033515;28;20044;-87
2022/03/22 06:58:05;;;;;;;41.10;27.13;;;7.70;99.90;;;;;;5033327;28;20041;-88
2022/03/22 07:00:31;;;;;;;39.17;26.58;;;7.80;99.90;;;;;;5033152;28;20046;-87
2022/03/22 07:02:58;;;;;;;36.03;26.05;;;7.80;99.90;;;;;;5033369;28;20042;-88
2022/03/22 07:05:24;;;;;;;36.78;25.88;;;7.90;99.90;;;;;;5033230;28;20522;-88
2022/03/22 07:07:50;;;;;;;34.53;25.02;;;8.00;99.90;;;;;;5033237;28;20104;-87
2022/03/22 07:10:17;;;;;;;34.08;25.48;;;8.00;99.90;;;;;;5033145;28;20060;-88
2022/03/22 07:12:57;;;;;;;35.65;25.13;;;8.10;99.90;;;;;;5016850;28;20037;-88
2022/03/22 07:15:33;;;;;;;34.72;25.70;;;8.20;99.90;;;;;;5032942;28;20041;-88
2022/03/22 07:18:00;;;;;;;36.95;26.73;;;8.30;99.90;;;;;;5033243;28;20095;-88
2022/03/22 07:20:26;;;;;;;37.55;25.30;;;8.30;99.90;;;;;;5026011;28;20081;-88
2022/03/22 07:22:52;;;;;;;36.90;24.88;;;8.40;99.90;;;;;;5066883;28;20037;-88
2022/03/22 07:25:18;;;;;;;36.10;25.38;;;8.50;99.90;;;;;;5062350;28;20041;-87
2022/03/22 07:27:44;;;;;;;36.22;25.15;;;8.60;99.90;;;;;;5030787;28;20022;-87
2022/03/22 07:30:11;;;;;;;39.10;28.23;;;8.70;99.90;;;;;;5052116;28;20118;-88
2022/03/22 07:32:41;;;;;;;35.78;25.33;;;8.80;99.90;;;;;;5033167;28;20048;-88
2022/03/22 07:35:08;;;;;;;33.20;26.02;;;8.90;99.90;;;;;;5033296;28;20029;-88
2022/03/22 07:37:34;;;;;;;34.63;25.40;;;9.00;99.90;;;;;;5031415;28;20915;-87
2022/03/22 07:40:02;;;;;;;36.45;25.17;;;9.10;99.90;;;;;;5014870;28;20051;-88
2022/03/22 07:42:29;;;;;;;36.70;24.48;;;9.20;99.90;;;;;;5032573;28;20114;-88
2022/03/22 07:44:56;;;;;;;37.20;25.48;;;9.30;99.90;;;;;;5044758;28;20041;-88
2022/03/22 07:47:23;;;;;;;36.35;25.92;;;9.40;99.90;;;;;;5035225;28;20036;-88
2022/03/22 07:55:17;;;;;;;32.28;24.10;;;9.80;99.90;;;;;;5052000;28;20049;-88
2022/03/22 07:57:44;;;;;;;35.42;25.05;;;9.90;99.90;;;;;;5035382;28;20033;-88
2022/03/22 08:00:10;;;;;;;33.55;26.20;;;10.00;99.90;;;;;;5051102;28;20072;-87
2022/03/22 08:02:36;;;;;;;34.83;26.38;;;10.10;99.90;;;;;;5051892;28;20116;-87
2022/03/22 08:05:05;;;;;;;33.30;26.73;;;10.30;99.90;;;;;;5051691;28;20124;-88
2022/03/22 08:07:31;;;;;;;31.85;24.92;;;10.40;99.90;;;;;;5051380;28;20136;-88
2022/03/22 08:09:56;;;;;;;36.03;25.90;;;10.50;99.90;;;;;;5030388;28;20060;-89
2022/03/22 08:12:22;;;;;;;34.58;26.52;;;10.60;99.90;;;;;;5030661;28;20076;-88
2022/03/22 08:14:47;;;;;;;32.50;25.88;;;10.70;99.80;;;;;;5030943;28;20099;-88
2022/03/22 08:17:13;;;;;;;34.33;26.60;;;10.90;99.80;;;;;;5030524;28;20049;-88
2022/03/22 08:19:39;;;;;;;34.70;26.85;;;11.00;99.60;;;;;;5029959;28;20048;-88
2022/03/22 08:22:05;;;;;;;35.60;25.95;;;11.10;99.70;;;;;;5014163;28;20047;-88
2022/03/22 08:24:31;;;;;;;33.95;24.67;;;11.20;99.20;;;;;;5030824;28;20129;-88
2022/03/22 08:26:57;;;;;;;30.38;24.60;;;11.40;98.70;;;;;;5030805;28;20033;-88
2022/03/22 08:29:22;;;;;;;29.35;24.55;;;11.40;97.80;;;;;;5031155;28;20053;-89
2022/03/22 08:31:49;;;;;;;31.90;24.40;;;11.60;97.30;;;;;;5030109;28;20677;-89
2022/03/22 08:34:14;;;;;;;28.92;24.83;;;11.70;97.30;;;;;;5030663;28;20046;-89
2022/03/22 08:36:40;;;;;;;30.63;24.90;;;11.80;96.80;;;;;;5030403;28;20128;-89
2022/03/22 08:39:05;;;;;;;31.08;24.42;;;11.90;96.20;;;;;;5012610;28;20045;-89
2022/03/22 08:41:32;;;;;;;31.38;24.88;;;12.00;95.90;;;;;;5029815;28;20129;-90
2022/03/22 08:43:57;;;;;;;29.38;24.38;;;12.10;95.70;;;;;;5013553;28;20131;-89
2022/03/22 08:46:24;;;;;;;30.02;24.58;;;12.30;95.80;;;;;;5030363;28;20665;-89
2022/03/22 08:48:53;;;;;;;28.00;23.00;;;12.40;95.70;;;;;;5013684;28;20045;-89
2022/03/22 08:51:21;;;;;;;29.33;22.70;;;12.50;94.90;;;;;;5029636;28;20037;-89
2022/03/22 08:53:46;;;;;;;29.80;24.50;;;12.60;93.00;;;;;;5030798;28;20029;-89
2022/03/22 08:56:12;;;;;;;26.63;21.98;;;12.80;93.10;;;;;;5030863;28;20526;-89
2022/03/22 08:58:38;;;;;;;28.55;23.23;;;12.90;92.00;;;;;;5030709;28;20149;-88
2022/03/22 09:01:04;;;;;;;29.27;23.63;;;13.00;91.40;;;;;;5013767;28;20484;-88
2022/03/22 09:03:32;;;;;;;27.90;23.35;;;13.10;92.10;;;;;;5030389;28;20041;-89
2022/03/22 09:06:11;;;;;;;25.70;22.38;;;13.20;90.70;;;;;;5013752;28;20187;-88
2022/03/22 09:08:39;;;;;;;28.63;22.40;;;13.30;88.90;;;;;;5028692;28;20657;-88
2022/03/22 09:11:05;;;;;;;27.42;22.77;;;13.40;84.40;;;;;;5013089;28;20073;-89
2022/03/22 09:13:31;;;;;;;26.42;21.65;;;13.50;81.60;;;;;;5030287;28;20132;-89
2022/03/22 09:15:57;;;;;;;25.38;21.75;;;13.60;80.90;;;;;;5030395;28;20574;-89
2022/03/22 09:18:22;;;;;;;27.85;21.85;;;13.70;80.50;;;;;;5013085;28;20037;-88
2022/03/22 09:20:49;;;;;;;27.02;21.67;;;13.80;80.40;;;;;;5029128;28;20041;-88
2022/03/22 09:23:16;;;;;;;26.55;22.33;;;13.90;79.60;;;;;;5029488;28;20064;-89
2022/03/22 09:25:43;;;;;;;27.30;22.33;;;14.00;74.80;;;;;;5029769;28;20498;-89
2022/03/22 09:28:10;;;;;;;27.63;22.15;;;14.10;73.60;;;;;;5029895;28;20042;-89
2022/03/22 09:30:38;;;;;;;26.15;21.27;;;14.20;76.90;;;;;;5013142;28;20041;-89
2022/03/22 09:33:04;;;;;;;29.80;23.27;;;14.30;74.40;;;;;;5030045;28;20045;-89
2022/03/22 09:35:30;;;;;;;29.52;23.13;;;14.40;72.70;;;;;;5030000;28;20076;-90
2022/03/22 09:37:57;;;;;;;27.10;21.73;;;14.50;72.10;;;;;;5030283;28;20041;-89
2022/03/22 09:40:23;;;;;;;26.20;22.65;;;14.60;72.10;;;;;;5028607;28;20049;-89
2022/03/22 09:42:49;;;;;;;29.13;23.55;;;14.70;71.70;;;;;;5012463;28;20133;-89
2022/03/22 09:45:18;;;;;;;26.20;23.35;;;14.80;72.70;;;;;;5028947;28;20051;-89
2022/03/22 09:47:45;;;;;;;28.30;22.42;;;14.90;75.80;;;;;;5029524;28;20080;-89
2022/03/22 09:50:12;;;;;;;29.73;24.42;;;15.10;73.40;;;;;;5029011;28;20061;-89
2022/03/22 09:52:39;;;;;;;27.80;24.08;;;15.20;72.60;;;;;;5029158;28;20033;-90
2022/03/22 09:55:07;;;;;;;26.15;22.33;;;15.30;71.60;;;;;;5013618;28;20069;-90
2022/03/22 09:57:33;;;;;;;28.90;23.42;;;15.40;71.10;;;;;;5029888;28;20477;-90
2022/03/22 09:59:59;;;;;;;29.38;23.70;;;15.60;71.10;;;;;;5029204;28;20073;-89
2022/03/22 10:02:30;;;;;;;28.02;23.70;;;15.70;70.80;;;;;;5029226;28;20072;-90
2022/03/22 10:04:56;;;;;;;29.33;23.73;;;15.80;69.00;;;;;;5013106;28;20084;-90
2022/03/22 10:07:23;;;;;;;26.27;23.15;;;15.90;70.60;;;;;;5029178;28;20033;-89
2022/03/22 10:10:01;;;;;;;26.38;23.45;;;16.00;68.40;;;;;;5012588;28;20107;-90
2022/03/22 10:12:28;;;;;;;26.20;23.45;;;16.10;66.30;;;;;;5029577;28;20053;-90
2022/03/22 10:14:54;;;;;;;27.10;23.70;;;16.10;66.50;;;;;;5028998;28;20045;-89
2022/03/22 10:17:20;;;;;;;26.85;23.55;;;16.30;66.20;;;;;;5029409;28;20033;-90
2022/03/22 10:19:48;;;;;;;27.55;22.85;;;16.40;66.30;;;;;;5029035;28;20044;-89
2022/03/22 10:22:14;;;;;;;28.30;23.60;;;16.50;65.40;;;;;;5011895;28;20049;-90
2022/03/22 10:24:48;;;;;;;28.10;23.65;;;16.60;65.10;;;;;;5029442;28;20044;-90
2022/03/22 10:27:32;;;;;;;34.22;24.05;;;16.70;65.80;;;;;;5029429;28;20509;-90
2022/03/22 10:30:00;;;;;;;30.52;23.63;;;16.90;63.70;;;;;;5029227;28;20076;-90
2022/03/22 10:32:37;;;;;;;26.67;23.30;;;16.90;64.70;;;;;;5029598;28;20108;-90
2022/03/22 10:35:13;;;;;;;27.70;23.73;;;17.10;63.80;;;;;;5030130;28;20045;-90
2022/03/22 10:37:45;;;;;;;27.88;24.75;;;17.20;62.70;;;;;;5029510;28;20041;-90
2022/03/22 10:40:23;;;;;;;35.53;23.48;;;17.30;63.40;;;;;;5012661;28;20814;-90
2022/03/22 10:42:54;;;;;;;27.25;23.83;;;17.40;62.70;;;;;;5027914;28;20048;-90
2022/03/22 10:45:20;;;;;;;27.75;23.55;;;17.60;61.90;;;;;;5029670;28;20037;-90
2022/03/22 10:47:47;;;;;;;30.77;22.33;;;17.80;62.20;;;;;;5012395;28;20048;-90
2022/03/22 10:50:13;;;;;;;27.20;23.00;;;17.90;60.80;;;;;;5012540;28;20095;-89
2022/03/22 10:52:56;;;;;;;26.40;23.13;;;18.10;60.80;;;;;;5029266;28;20128;-90
2022/03/22 10:55:24;;;;;;;28.85;23.63;;;18.30;60.00;;;;;;5029529;28;20235;-90
2022/03/22 10:57:58;;;;;;;26.73;23.17;;;18.40;60.20;;;;;;5013020;28;20049;-90
2022/03/22 11:00:25;;;;;;;25.08;22.40;;;18.60;58.10;;;;;;5030489;28;20081;-90
2022/03/22 11:02:56;;;;;;;27.92;24.10;;;18.70;58.60;;;;;;5031207;28;20036;-90
2022/03/22 11:05:24;;;;;;;25.48;22.65;;;18.80;57.20;;;;;;5014312;28;20044;-90
2022/03/22 11:07:51;;;;;;;26.38;21.42;;;18.80;57.80;;;;;;5015966;28;20033;-90
2022/03/22 11:10:19;;;;;;;25.88;22.27;;;19.00;57.90;;;;;;5032449;28;20102;-90
2022/03/22 11:12:46;;;;;;;27.45;22.80;;;19.30;58.50;;;;;;5032132;28;20046;-90
2022/03/22 11:15:14;;;;;;;26.30;22.33;;;19.50;59.50;;;;;;5010588;28;20086;-90
2022/03/22 11:17:40;;;;;;;29.73;25.70;;;19.70;57.70;;;;;;5032019;28;20040;-90
2022/03/22 11:20:10;;;;;;;25.60;22.13;;;19.80;56.60;;;;;;5031339;28;20041;-90
2022/03/22 11:22:36;;;;;;;25.40;22.10;;;20.00;55.20;;;;;;5031960;28;20044;-90
2022/03/22 11:25:13;;;;;;;29.38;24.25;;;20.10;54.20;;;;;;5032225;28;20033;-90
2022/03/22 11:27:39;;;;;;;26.50;21.42;;;20.30;53.60;;;;;;5032316;28;20495;-89
2022/03/22 11:30:08;;;;;;;27.92;21.77;;;20.40;52.50;;;;;;5032119;28;20118;-90
2022/03/22 11:35:24;;;;;;;25.42;21.70;;;20.70;51.40;;;;;;5032622;28;20045;-90
2022/03/22 11:37:56;;;;;;;27.60;22.55;;;20.70;50.30;;;;;;5031935;28;20045;-90
2022/03/22 11:43:13;;;;;;;28.73;22.20;;;20.80;50.00;;;;;;5030553;28;20136;-90
2022/03/22 11:45:49;;;;;;;26.20;20.98;;;21.00;49.50;;;;;;5015773;28;20403;-89
2022/03/22 11:48:16;;;;;;;27.10;21.90;;;21.20;49.80;;;;;;5031238;28;20069;-90
2022/03/22 11:50:44;;;;;;;26.90;21.33;;;21.40;49.50;;;;;;5014502;28;20052;-90
2022/03/22 11:53:17;;;;;;;24.33;21.08;;;21.60;48.60;;;;;;5032012;28;20599;-90
2022/03/22 11:55:42;;;;;;;27.42;21.13;;;21.70;48.60;;;;;;5031556;28;20048;-90
2022/03/22 11:58:09;;;;;;;26.33;21.02;;;21.90;48.60;;;;;;5013610;28;20037;-90
2022/03/22 12:00:44;;;;;;;24.15;21.23;;;22.00;48.00;;;;;;5012907;28;20074;-90
2022/03/22 12:03:12;;;;;;;27.95;22.23;;;22.30;47.00;;;;;;5031455;28;20033;-90
2022/03/22 12:05:37;;;;;;;25.42;20.88;;;22.40;47.10;;;;;;5031736;28;20041;-89
2022/03/22 12:08:16;;;;;;;26.27;20.48;;;22.50;46.10;;;;;;5031955;28;20034;-90
2022/03/22 12:11:00;;;;;;;27.05;20.70;;;22.70;45.80;;;;;;5031518;28;20041;-90
2022/03/22 12:13:26;;;;;;;24.65;18.83;;;22.80;43.20;;;;;;5032060;28;20179;-90
2022/03/22 12:15:59;;;;;;;26.05;19.77;;;23.00;44.60;;;;;;5015354;28;20546;-90
2022/03/22 12:18:29;;;;;;;26.27;21.50;;;23.10;44.70;;;;;;5014885;28;20042;-90
2022/03/22 12:20:56;;;;;;;23.65;18.45;;;23.20;44.60;;;;;;5030985;28;20573;-90
2022/03/22 12:23:22;;;;;;;26.60;19.38;;;23.30;45.70;;;;;;5014053;28;20120;-90
2022/03/22 12:25:47;;;;;;;26.48;19.67;;;23.50;44.10;;;;;;5031184;28;20076;-90
2022/03/22 12:28:13;;;;;;;26.70;18.70;;;23.50;43.60;;;;;;5031505;28;20073;-90
2022/03/22 12:30:41;;;;;;;21.63;17.67;;;23.70;43.30;;;;;;5011918;28;20142;-90
2022/03/22 12:33:13;;;;;;;23.33;19.15;;;24.00;43.00;;;;;;5030806;28;20041;-90
2022/03/22 12:35:40;;;;;;;23.00;18.48;;;24.10;42.30;;;;;;5038167;28;20350;-90
2022/03/22 12:38:06;;;;;;;22.65;18.13;;;24.20;42.20;;;;;;5066813;28;20052;-90
2022/03/22 12:40:33;;;;;;;22.05;16.73;;;24.30;41.80;;;;;;5065189;28;20033;-90
2022/03/22 12:42:59;;;;;;;21.73;18.10;;;24.40;41.20;;;;;;5053781;28;20333;-90
2022/03/22 12:45:27;;;;;;;23.88;18.20;;;24.50;41.20;;;;;;5050204;28;20121;-90
2022/03/22 12:47:56;;;;;;;25.10;18.40;;;24.70;41.30;;;;;;5050781;28;20066;-90
2022/03/22 12:50:22;;;;;;;24.15;18.55;;;24.80;41.20;;;;;;5042804;28;20041;-90
2022/03/22 12:52:50;;;;;;;24.75;18.42;;;25.00;40.70;;;;;;5015599;28;20120;-90
2022/03/22 12:55:17;;;;;;;22.38;17.95;;;25.10;40.30;;;;;;5031454;28;20521;-90
2022/03/22 12:57:48;;;;;;;24.15;17.92;;;25.30;40.60;;;;;;5031295;28;20530;-90
2022/03/22 13:00:32;;;;;;;27.15;19.20;;;25.60;40.20;;;;;;5030396;28;20037;-90
2022/03/22 13:03:07;;;;;;;21.98;18.55;;;25.60;40.10;;;;;;5030463;28;20107;-90
2022/03/22 13:05:32;;;;;;;25.98;18.88;;;25.80;38.70;;;;;;5031576;28;20041;-90
2022/03/22 13:07:58;;;;;;;22.38;17.85;;;26.00;39.00;;;;;;5030722;28;20045;-90
2022/03/22 13:13:19;;;;;;;24.52;19.10;;;26.20;39.00;;;;;;5030284;28;20046;-90
2022/03/22 13:15:52;;;;;;;26.25;19.25;;;26.30;37.30;;;;;;5030187;28;20049;-90